sensor_id;sensor_type;location;lat;lon;timestamp;P1;durP1;ratioP1;P2;durP2;ratioP2
22070;SDS011;11200;51.488;6.668;2022-07-23T00:02:05;3.45;;;2.22;;
22070;SDS011;11200;51.488;6.668;2022-07-23T00:04:31;4.28;;;2.05;;
22070;SDS011;11200;51.488;6.668;2022-07-23T00:06:57;2.97;;;2.20;;
22070;SDS011;11200;51.488;6.668;2022-07-23T00:09:23;2.92;;;2.15;;
22070;SDS011;11200;51.488;6.668;2022-07-23T00:11:48;3.63;;;2.10;;
22070;SDS011;11200;51.488;6.668;2022-07-23T00:14:14;4.63;;;2.25;;
22070;SDS011;11200;51.488;6.668;2022-07-23T00:16:40;3.20;;;2.10;;
22070;SDS011;11200;51.488;6.668;2022-07-23T00:19:05;2.75;;;2.38;;
22070;SDS011;11200;51.488;6.668;2022-07-23T00:21:31;3.70;;;2.40;;
22070;SDS011;11200;51.488;6.668;2022-07-23T00:23:57;3.85;;;2.30;;
22070;SDS011;11200;51.488;6.668;2022-07-23T00:26:22;3.25;;;2.42;;
22070;SDS011;11200;51.488;6.668;2022-07-23T00:28:48;4.18;;;2.30;;
22070;SDS011;11200;51.488;6.668;2022-07-23T00:31:13;2.50;;;2.20;;
22070;SDS011;11200;51.488;6.668;2022-07-23T00:33:39;2.88;;;2.17;;
22070;SDS011;11200;51.488;6.668;2022-07-23T00:36:05;2.95;;;2.20;;
22070;SDS011;11200;51.488;6.668;2022-07-23T00:38:31;2.45;;;2.25;;
22070;SDS011;11200;51.488;6.668;2022-07-23T00:40:56;4.45;;;2.28;;
22070;SDS011;11200;51.488;6.668;2022-07-23T00:43:22;2.30;;;2.10;;
22070;SDS011;11200;51.488;6.668;2022-07-23T00:45:48;2.58;;;2.28;;
22070;SDS011;11200;51.488;6.668;2022-07-23T00:48:14;2.47;;;2.22;;
22070;SDS011;11200;51.488;6.668;2022-07-23T00:50:40;2.13;;;1.95;;
22070;SDS011;11200;51.488;6.668;2022-07-23T00:53:06;3.25;;;2.67;;
22070;SDS011;11200;51.488;6.668;2022-07-23T00:55:33;3.75;;;2.33;;
22070;SDS011;11200;51.488;6.668;2022-07-23T00:57:59;2.60;;;2.10;;
22070;SDS011;11200;51.488;6.668;2022-07-23T01:00:25;2.42;;;2.22;;
22070;SDS011;11200;51.488;6.668;2022-07-23T01:02:51;2.97;;;2.20;;
22070;SDS011;11200;51.488;6.668;2022-07-23T01:05:17;3.78;;;2.40;;
22070;SDS011;11200;51.488;6.668;2022-07-23T01:07:46;2.85;;;2.15;;
22070;SDS011;11200;51.488;6.668;2022-07-23T01:10:16;2.85;;;2.10;;
22070;SDS011;11200;51.488;6.668;2022-07-23T01:12:57;2.95;;;2.45;;
22070;SDS011;11200;51.488;6.668;2022-07-23T01:15:34;3.97;;;2.13;;
22070;SDS011;11200;51.488;6.668;2022-07-23T01:18:01;2.30;;;2.10;;
22070;SDS011;11200;51.488;6.668;2022-07-23T01:20:29;2.97;;;2.33;;
22070;SDS011;11200;51.488;6.668;2022-07-23T01:22:55;3.05;;;2.20;;
22070;SDS011;11200;51.488;6.668;2022-07-23T01:25:21;2.40;;;2.17;;
22070;SDS011;11200;51.488;6.668;2022-07-23T01:27:47;2.58;;;2.30;;
22070;SDS011;11200;51.488;6.668;2022-07-23T01:30:13;3.03;;;2.47;;
22070;SDS011;11200;51.488;6.668;2022-07-23T01:32:39;2.90;;;2.28;;
22070;SDS011;11200;51.488;6.668;2022-07-23T01:35:05;5.90;;;2.50;;
22070;SDS011;11200;51.488;6.668;2022-07-23T01:37:31;2.88;;;2.33;;
22070;SDS011;11200;51.488;6.668;2022-07-23T01:39:57;2.60;;;2.40;;
22070;SDS011;11200;51.488;6.668;2022-07-23T01:42:22;2.50;;;2.20;;
22070;SDS011;11200;51.488;6.668;2022-07-23T01:44:48;2.30;;;2.10;;
22070;SDS011;11200;51.488;6.668;2022-07-23T01:47:14;2.38;;;2.15;;
22070;SDS011;11200;51.488;6.668;2022-07-23T01:49:40;2.60;;;2.13;;
22070;SDS011;11200;51.488;6.668;2022-07-23T01:52:06;3.47;;;2.60;;
22070;SDS011;11200;51.488;6.668;2022-07-23T01:54:35;2.78;;;2.13;;
22070;SDS011;11200;51.488;6.668;2022-07-23T01:57:01;2.80;;;2.05;;
22070;SDS011;11200;51.488;6.668;2022-07-23T01:59:27;2.53;;;2.28;;
22070;SDS011;11200;51.488;6.668;2022-07-23T02:01:53;2.60;;;2.40;;
22070;SDS011;11200;51.488;6.668;2022-07-23T02:04:22;3.47;;;2.30;;
22070;SDS011;11200;51.488;6.668;2022-07-23T02:06:49;2.75;;;2.42;;
22070;SDS011;11200;51.488;6.668;2022-07-23T02:09:15;2.53;;;2.33;;
22070;SDS011;11200;51.488;6.668;2022-07-23T02:11:41;3.78;;;2.42;;
22070;SDS011;11200;51.488;6.668;2022-07-23T02:14:07;3.05;;;2.45;;
22070;SDS011;11200;51.488;6.668;2022-07-23T02:16:33;3.53;;;2.60;;
22070;SDS011;11200;51.488;6.668;2022-07-23T02:18:58;2.78;;;2.53;;
22070;SDS011;11200;51.488;6.668;2022-07-23T02:21:24;3.30;;;2.75;;
22070;SDS011;11200;51.488;6.668;2022-07-23T02:23:50;2.92;;;2.53;;
22070;SDS011;11200;51.488;6.668;2022-07-23T02:26:15;3.05;;;2.58;;
22070;SDS011;11200;51.488;6.668;2022-07-23T02:28:41;3.25;;;2.45;;
22070;SDS011;11200;51.488;6.668;2022-07-23T02:31:07;3.35;;;2.40;;
22070;SDS011;11200;51.488;6.668;2022-07-23T02:33:33;3.53;;;2.90;;
22070;SDS011;11200;51.488;6.668;2022-07-23T02:35:59;2.90;;;2.60;;
22070;SDS011;11200;51.488;6.668;2022-07-23T02:38:25;4.22;;;2.45;;
22070;SDS011;11200;51.488;6.668;2022-07-23T02:40:51;2.95;;;2.50;;
22070;SDS011;11200;51.488;6.668;2022-07-23T02:43:16;4.15;;;2.55;;
22070;SDS011;11200;51.488;6.668;2022-07-23T02:45:42;2.97;;;2.65;;
22070;SDS011;11200;51.488;6.668;2022-07-23T02:48:08;3.35;;;2.53;;
22070;SDS011;11200;51.488;6.668;2022-07-23T02:50:33;3.67;;;2.50;;
22070;SDS011;11200;51.488;6.668;2022-07-23T02:52:59;2.95;;;2.65;;
22070;SDS011;11200;51.488;6.668;2022-07-23T02:55:25;2.53;;;2.22;;
22070;SDS011;11200;51.488;6.668;2022-07-23T02:57:51;2.85;;;2.47;;
22070;SDS011;11200;51.488;6.668;2022-07-23T03:00:16;3.53;;;2.60;;
22070;SDS011;11200;51.488;6.668;2022-07-23T03:02:42;2.88;;;2.35;;
22070;SDS011;11200;51.488;6.668;2022-07-23T03:05:07;3.55;;;2.60;;
22070;SDS011;11200;51.488;6.668;2022-07-23T03:07:33;3.00;;;2.20;;
22070;SDS011;11200;51.488;6.668;2022-07-23T03:09:59;2.80;;;2.60;;
22070;SDS011;11200;51.488;6.668;2022-07-23T03:12:25;2.60;;;2.40;;
22070;SDS011;11200;51.488;6.668;2022-07-23T03:14:50;3.72;;;2.40;;
22070;SDS011;11200;51.488;6.668;2022-07-23T03:17:16;2.53;;;2.33;;
22070;SDS011;11200;51.488;6.668;2022-07-23T03:19:42;4.75;;;2.60;;
22070;SDS011;11200;51.488;6.668;2022-07-23T03:22:07;3.75;;;3.03;;
22070;SDS011;11200;51.488;6.668;2022-07-23T03:24:33;2.95;;;2.65;;
22070;SDS011;11200;51.488;6.668;2022-07-23T03:27:18;2.92;;;2.55;;
22070;SDS011;11200;51.488;6.668;2022-07-23T03:29:43;2.80;;;2.60;;
22070;SDS011;11200;51.488;6.668;2022-07-23T03:32:09;2.70;;;2.50;;
22070;SDS011;11200;51.488;6.668;2022-07-23T03:34:34;3.30;;;2.58;;
22070;SDS011;11200;51.488;6.668;2022-07-23T03:37:00;3.35;;;2.45;;
22070;SDS011;11200;51.488;6.668;2022-07-23T03:39:26;2.63;;;2.42;;
22070;SDS011;11200;51.488;6.668;2022-07-23T03:41:51;3.42;;;2.90;;
22070;SDS011;11200;51.488;6.668;2022-07-23T03:44:17;3.03;;;2.58;;
22070;SDS011;11200;51.488;6.668;2022-07-23T03:46:42;3.22;;;2.58;;
22070;SDS011;11200;51.488;6.668;2022-07-23T03:49:08;3.33;;;2.55;;
22070;SDS011;11200;51.488;6.668;2022-07-23T03:51:34;3.15;;;2.45;;
22070;SDS011;11200;51.488;6.668;2022-07-23T03:54:00;2.78;;;2.58;;
22070;SDS011;11200;51.488;6.668;2022-07-23T03:56:25;3.00;;;2.70;;
22070;SDS011;11200;51.488;6.668;2022-07-23T03:58:51;2.88;;;2.65;;
22070;SDS011;11200;51.488;6.668;2022-07-23T04:01:17;3.10;;;2.80;;
22070;SDS011;11200;51.488;6.668;2022-07-23T04:03:42;3.08;;;2.67;;
22070;SDS011;11200;51.488;6.668;2022-07-23T04:06:08;3.38;;;2.60;;
22070;SDS011;11200;51.488;6.668;2022-07-23T04:08:33;2.88;;;2.58;;
22070;SDS011;11200;51.488;6.668;2022-07-23T04:10:59;3.05;;;2.70;;
22070;SDS011;11200;51.488;6.668;2022-07-23T04:13:25;3.03;;;2.70;;
22070;SDS011;11200;51.488;6.668;2022-07-23T04:15:50;3.00;;;2.53;;
22070;SDS011;11200;51.488;6.668;2022-07-23T04:18:16;2.85;;;2.53;;
22070;SDS011;11200;51.488;6.668;2022-07-23T04:20:43;3.65;;;2.85;;
22070;SDS011;11200;51.488;6.668;2022-07-23T04:23:09;3.00;;;2.80;;
22070;SDS011;11200;51.488;6.668;2022-07-23T04:25:35;3.15;;;2.75;;
22070;SDS011;11200;51.488;6.668;2022-07-23T04:28:00;3.08;;;2.67;;
22070;SDS011;11200;51.488;6.668;2022-07-23T04:30:26;3.05;;;2.75;;
22070;SDS011;11200;51.488;6.668;2022-07-23T04:32:52;2.97;;;2.70;;
22070;SDS011;11200;51.488;6.668;2022-07-23T04:35:17;3.50;;;3.08;;
22070;SDS011;11200;51.488;6.668;2022-07-23T04:37:43;3.40;;;2.80;;
22070;SDS011;11200;51.488;6.668;2022-07-23T04:40:09;2.88;;;2.67;;
22070;SDS011;11200;51.488;6.668;2022-07-23T04:42:35;3.00;;;2.67;;
22070;SDS011;11200;51.488;6.668;2022-07-23T04:45:01;2.75;;;2.55;;
22070;SDS011;11200;51.488;6.668;2022-07-23T04:47:28;3.58;;;2.80;;
22070;SDS011;11200;51.488;6.668;2022-07-23T04:49:54;2.75;;;2.50;;
22070;SDS011;11200;51.488;6.668;2022-07-23T04:52:20;3.25;;;2.50;;
22070;SDS011;11200;51.488;6.668;2022-07-23T04:54:45;2.70;;;2.50;;
22070;SDS011;11200;51.488;6.668;2022-07-23T04:57:11;3.03;;;2.58;;
22070;SDS011;11200;51.488;6.668;2022-07-23T04:59:36;3.03;;;2.55;;
22070;SDS011;11200;51.488;6.668;2022-07-23T05:02:02;2.97;;;2.70;;
22070;SDS011;11200;51.488;6.668;2022-07-23T05:04:28;3.20;;;2.83;;
22070;SDS011;11200;51.488;6.668;2022-07-23T05:06:53;3.47;;;2.53;;
22070;SDS011;11200;51.488;6.668;2022-07-23T05:09:19;2.53;;;2.33;;
22070;SDS011;11200;51.488;6.668;2022-07-23T05:11:44;3.47;;;2.95;;
22070;SDS011;11200;51.488;6.668;2022-07-23T05:14:10;3.67;;;2.58;;
22070;SDS011;11200;51.488;6.668;2022-07-23T05:16:37;2.88;;;2.60;;
22070;SDS011;11200;51.488;6.668;2022-07-23T05:19:03;2.75;;;2.50;;
22070;SDS011;11200;51.488;6.668;2022-07-23T05:21:29;3.78;;;2.72;;
22070;SDS011;11200;51.488;6.668;2022-07-23T05:23:54;3.25;;;2.60;;
22070;SDS011;11200;51.488;6.668;2022-07-23T05:26:20;3.70;;;2.40;;
22070;SDS011;11200;51.488;6.668;2022-07-23T05:28:46;2.65;;;2.45;;
22070;SDS011;11200;51.488;6.668;2022-07-23T05:31:11;2.97;;;2.67;;
22070;SDS011;11200;51.488;6.668;2022-07-23T05:33:37;2.40;;;2.20;;
22070;SDS011;11200;51.488;6.668;2022-07-23T05:36:03;2.70;;;2.50;;
22070;SDS011;11200;51.488;6.668;2022-07-23T05:38:29;5.47;;;2.88;;
22070;SDS011;11200;51.488;6.668;2022-07-23T05:40:55;2.60;;;2.40;;
22070;SDS011;11200;51.488;6.668;2022-07-23T05:43:20;2.67;;;2.47;;
22070;SDS011;11200;51.488;6.668;2022-07-23T05:45:46;3.00;;;2.50;;
22070;SDS011;11200;51.488;6.668;2022-07-23T05:48:12;2.53;;;2.33;;
22070;SDS011;11200;51.488;6.668;2022-07-23T05:50:37;3.70;;;3.13;;
22070;SDS011;11200;51.488;6.668;2022-07-23T05:53:03;2.63;;;2.42;;
22070;SDS011;11200;51.488;6.668;2022-07-23T05:55:29;3.50;;;3.20;;
22070;SDS011;11200;51.488;6.668;2022-07-23T05:57:56;4.00;;;3.60;;
22070;SDS011;11200;51.488;6.668;2022-07-23T06:00:26;3.40;;;3.10;;
22070;SDS011;11200;51.488;6.668;2022-07-23T06:02:52;3.03;;;2.83;;
22070;SDS011;11200;51.488;6.668;2022-07-23T06:05:18;3.50;;;3.20;;
22070;SDS011;11200;51.488;6.668;2022-07-23T06:07:44;3.47;;;2.90;;
22070;SDS011;11200;51.488;6.668;2022-07-23T06:10:09;2.80;;;2.50;;
22070;SDS011;11200;51.488;6.668;2022-07-23T06:12:35;3.03;;;2.70;;
22070;SDS011;11200;51.488;6.668;2022-07-23T06:15:01;2.78;;;2.58;;
22070;SDS011;11200;51.488;6.668;2022-07-23T06:17:27;3.92;;;2.92;;
22070;SDS011;11200;51.488;6.668;2022-07-23T06:19:53;2.88;;;2.50;;
22070;SDS011;11200;51.488;6.668;2022-07-23T06:22:19;2.50;;;2.30;;
22070;SDS011;11200;51.488;6.668;2022-07-23T06:24:45;3.95;;;2.40;;
22070;SDS011;11200;51.488;6.668;2022-07-23T06:27:11;2.60;;;2.40;;
22070;SDS011;11200;51.488;6.668;2022-07-23T06:29:36;3.00;;;2.47;;
22070;SDS011;11200;51.488;6.668;2022-07-23T06:32:02;2.88;;;2.67;;
22070;SDS011;11200;51.488;6.668;2022-07-23T06:34:28;3.00;;;2.70;;
22070;SDS011;11200;51.488;6.668;2022-07-23T06:36:53;2.70;;;2.50;;
22070;SDS011;11200;51.488;6.668;2022-07-23T06:39:19;3.10;;;2.80;;
22070;SDS011;11200;51.488;6.668;2022-07-23T06:41:45;3.72;;;2.55;;
22070;SDS011;11200;51.488;6.668;2022-07-23T06:44:10;3.63;;;2.97;;
22070;SDS011;11200;51.488;6.668;2022-07-23T06:46:36;2.92;;;2.63;;
22070;SDS011;11200;51.488;6.668;2022-07-23T06:49:01;3.20;;;2.90;;
22070;SDS011;11200;51.488;6.668;2022-07-23T06:51:29;3.00;;;2.70;;
22070;SDS011;11200;51.488;6.668;2022-07-23T06:53:54;3.25;;;2.75;;
22070;SDS011;11200;51.488;6.668;2022-07-23T06:56:20;3.10;;;2.80;;
22070;SDS011;11200;51.488;6.668;2022-07-23T06:58:45;3.67;;;2.50;;
22070;SDS011;11200;51.488;6.668;2022-07-23T07:01:11;5.80;;;3.00;;
22070;SDS011;11200;51.488;6.668;2022-07-23T07:03:37;3.63;;;2.88;;
22070;SDS011;11200;51.488;6.668;2022-07-23T07:06:02;2.80;;;2.60;;
22070;SDS011;11200;51.488;6.668;2022-07-23T07:08:28;2.85;;;2.60;;
22070;SDS011;11200;51.488;6.668;2022-07-23T07:10:54;3.10;;;2.67;;
22070;SDS011;11200;51.488;6.668;2022-07-23T07:13:19;2.55;;;2.35;;
22070;SDS011;11200;51.488;6.668;2022-07-23T07:15:45;3.70;;;2.80;;
22070;SDS011;11200;51.488;6.668;2022-07-23T07:18:10;2.75;;;2.50;;
22070;SDS011;11200;51.488;6.668;2022-07-23T07:20:36;2.72;;;2.45;;
22070;SDS011;11200;51.488;6.668;2022-07-23T07:23:02;2.67;;;2.47;;
22070;SDS011;11200;51.488;6.668;2022-07-23T07:25:27;3.33;;;2.72;;
22070;SDS011;11200;51.488;6.668;2022-07-23T07:27:53;3.28;;;2.65;;
22070;SDS011;11200;51.488;6.668;2022-07-23T07:30:18;2.78;;;2.58;;
22070;SDS011;11200;51.488;6.668;2022-07-23T07:32:44;3.63;;;2.60;;
22070;SDS011;11200;51.488;6.668;2022-07-23T07:35:10;2.92;;;2.45;;
22070;SDS011;11200;51.488;6.668;2022-07-23T07:37:35;2.60;;;2.40;;
22070;SDS011;11200;51.488;6.668;2022-07-23T07:40:02;2.80;;;2.47;;
22070;SDS011;11200;51.488;6.668;2022-07-23T07:42:28;2.83;;;2.42;;
22070;SDS011;11200;51.488;6.668;2022-07-23T07:44:54;3.38;;;2.60;;
22070;SDS011;11200;51.488;6.668;2022-07-23T07:47:19;3.38;;;2.50;;
22070;SDS011;11200;51.488;6.668;2022-07-23T07:49:45;2.75;;;2.53;;
22070;SDS011;11200;51.488;6.668;2022-07-23T07:52:11;3.95;;;2.47;;
22070;SDS011;11200;51.488;6.668;2022-07-23T07:54:37;3.28;;;2.40;;
22070;SDS011;11200;51.488;6.668;2022-07-23T07:57:02;3.13;;;2.50;;
22070;SDS011;11200;51.488;6.668;2022-07-23T07:59:28;4.55;;;2.45;;
22070;SDS011;11200;51.488;6.668;2022-07-23T08:01:54;2.45;;;2.22;;
22070;SDS011;11200;51.488;6.668;2022-07-23T08:04:19;3.13;;;2.55;;
22070;SDS011;11200;51.488;6.668;2022-07-23T08:06:45;2.55;;;2.35;;
22070;SDS011;11200;51.488;6.668;2022-07-23T08:09:11;3.30;;;2.60;;
22070;SDS011;11200;51.488;6.668;2022-07-23T08:11:36;3.20;;;2.58;;
22070;SDS011;11200;51.488;6.668;2022-07-23T08:14:02;4.10;;;2.60;;
22070;SDS011;11200;51.488;6.668;2022-07-23T08:16:28;4.00;;;2.40;;
22070;SDS011;11200;51.488;6.668;2022-07-23T08:18:53;2.95;;;2.40;;
22070;SDS011;11200;51.488;6.668;2022-07-23T08:21:19;2.83;;;2.63;;
22070;SDS011;11200;51.488;6.668;2022-07-23T08:23:44;2.90;;;2.50;;
22070;SDS011;11200;51.488;6.668;2022-07-23T08:26:10;3.13;;;2.35;;
22070;SDS011;11200;51.488;6.668;2022-07-23T08:28:36;3.15;;;2.40;;
22070;SDS011;11200;51.488;6.668;2022-07-23T08:31:02;3.22;;;1.98;;
22070;SDS011;11200;51.488;6.668;2022-07-23T08:33:28;3.38;;;2.50;;
22070;SDS011;11200;51.488;6.668;2022-07-23T08:35:53;2.45;;;2.10;;
22070;SDS011;11200;51.488;6.668;2022-07-23T08:38:20;2.88;;;2.40;;
22070;SDS011;11200;51.488;6.668;2022-07-23T08:40:47;3.35;;;2.25;;
22070;SDS011;11200;51.488;6.668;2022-07-23T08:43:14;3.25;;;2.30;;
22070;SDS011;11200;51.488;6.668;2022-07-23T08:45:46;2.42;;;2.00;;
22070;SDS011;11200;51.488;6.668;2022-07-23T08:48:14;3.25;;;1.92;;
22070;SDS011;11200;51.488;6.668;2022-07-23T08:50:51;2.50;;;2.30;;
22070;SDS011;11200;51.488;6.668;2022-07-23T08:53:22;2.00;;;1.80;;
22070;SDS011;11200;51.488;6.668;2022-07-23T08:55:52;2.25;;;2.03;;
22070;SDS011;11200;51.488;6.668;2022-07-23T08:58:19;2.03;;;1.85;;
22070;SDS011;11200;51.488;6.668;2022-07-23T09:00:46;3.28;;;2.30;;
22070;SDS011;11200;51.488;6.668;2022-07-23T09:03:16;2.22;;;1.83;;
22070;SDS011;11200;51.488;6.668;2022-07-23T09:05:43;2.25;;;1.95;;
22070;SDS011;11200;51.488;6.668;2022-07-23T09:08:10;2.58;;;1.90;;
22070;SDS011;11200;51.488;6.668;2022-07-23T09:10:52;3.50;;;1.90;;
22070;SDS011;11200;51.488;6.668;2022-07-23T09:13:23;2.17;;;1.65;;
22070;SDS011;11200;51.488;6.668;2022-07-23T09:15:50;1.83;;;1.60;;
22070;SDS011;11200;51.488;6.668;2022-07-23T09:18:16;2.15;;;1.77;;
22070;SDS011;11200;51.488;6.668;2022-07-23T09:20:43;2.80;;;1.90;;
22070;SDS011;11200;51.488;6.668;2022-07-23T09:23:09;2.40;;;1.83;;
22070;SDS011;11200;51.488;6.668;2022-07-23T09:25:34;2.70;;;1.70;;
22070;SDS011;11200;51.488;6.668;2022-07-23T09:28:00;2.20;;;1.85;;
22070;SDS011;11200;51.488;6.668;2022-07-23T09:30:28;2.75;;;2.00;;
22070;SDS011;11200;51.488;6.668;2022-07-23T09:33:14;2.85;;;2.10;;
22070;SDS011;11200;51.488;6.668;2022-07-23T09:35:44;3.25;;;1.70;;
22070;SDS011;11200;51.488;6.668;2022-07-23T09:38:21;2.35;;;1.65;;
22070;SDS011;11200;51.488;6.668;2022-07-23T09:41:04;2.63;;;1.90;;
22070;SDS011;11200;51.488;6.668;2022-07-23T09:43:34;2.53;;;1.77;;
22070;SDS011;11200;51.488;6.668;2022-07-23T09:48:49;2.22;;;1.60;;
22070;SDS011;11200;51.488;6.668;2022-07-23T09:51:16;1.60;;;1.40;;
22070;SDS011;11200;51.488;6.668;2022-07-23T09:53:58;1.50;;;1.40;;
22070;SDS011;11200;51.488;6.668;2022-07-23T09:56:23;2.15;;;1.58;;
22070;SDS011;11200;51.488;6.668;2022-07-23T09:58:50;1.50;;;1.40;;
22070;SDS011;11200;51.488;6.668;2022-07-23T10:01:17;1.50;;;1.40;;
22070;SDS011;11200;51.488;6.668;2022-07-23T10:03:44;1.60;;;1.50;;
22070;SDS011;11200;51.488;6.668;2022-07-23T10:06:11;1.40;;;1.30;;
22070;SDS011;11200;51.488;6.668;2022-07-23T10:08:39;2.75;;;1.75;;
22070;SDS011;11200;51.488;6.668;2022-07-23T10:11:07;1.90;;;1.42;;
22070;SDS011;11200;51.488;6.668;2022-07-23T10:13:36;1.30;;;1.20;;
22070;SDS011;11200;51.488;6.668;2022-07-23T10:16:22;1.75;;;1.50;;
22070;SDS011;11200;51.488;6.668;2022-07-23T10:18:48;1.67;;;1.50;;
22070;SDS011;11200;51.488;6.668;2022-07-23T10:21:16;1.50;;;1.40;;
22070;SDS011;11200;51.488;6.668;2022-07-23T10:23:58;1.83;;;1.48;;
22070;SDS011;11200;51.488;6.668;2022-07-23T10:26:45;1.45;;;1.33;;
22070;SDS011;11200;51.488;6.668;2022-07-23T10:34:36;1.80;;;1.30;;
22070;SDS011;11200;51.488;6.668;2022-07-23T10:37:34;2.17;;;1.30;;
22070;SDS011;11200;51.488;6.668;2022-07-23T10:40:15;2.13;;;1.40;;
22070;SDS011;11200;51.488;6.668;2022-07-23T10:42:47;2.72;;;1.20;;
22070;SDS011;11200;51.488;6.668;2022-07-23T10:45:34;1.95;;;1.33;;
22070;SDS011;11200;51.488;6.668;2022-07-23T10:48:34;2.42;;;1.30;;
22070;SDS011;11200;51.488;6.668;2022-07-23T10:51:11;1.27;;;1.17;;
22070;SDS011;11200;51.488;6.668;2022-07-23T10:53:59;4.28;;;1.42;;
22070;SDS011;11200;51.488;6.668;2022-07-23T10:59:22;1.27;;;1.17;;
22070;SDS011;11200;51.488;6.668;2022-07-23T11:01:48;1.63;;;1.20;;
22070;SDS011;11200;51.488;6.668;2022-07-23T11:04:14;1.98;;;1.42;;
22070;SDS011;11200;51.488;6.668;2022-07-23T11:12:45;1.27;;;1.10;;
22070;SDS011;11200;51.488;6.668;2022-07-23T11:25:10;2.47;;;1.27;;
22070;SDS011;11200;51.488;6.668;2022-07-23T11:27:37;1.23;;;1.13;;
22070;SDS011;11200;51.488;6.668;2022-07-23T11:30:04;1.35;;;1.10;;
22070;SDS011;11200;51.488;6.668;2022-07-23T11:32:32;1.42;;;1.13;;
22070;SDS011;11200;51.488;6.668;2022-07-23T11:35:17;1.42;;;1.27;;
22070;SDS011;11200;51.488;6.668;2022-07-23T11:37:44;1.95;;;1.27;;
22070;SDS011;11200;51.488;6.668;2022-07-23T11:40:12;2.67;;;1.10;;
22070;SDS011;11200;51.488;6.668;2022-07-23T11:42:50;1.42;;;1.20;;
22070;SDS011;11200;51.488;6.668;2022-07-23T11:45:23;1.40;;;1.30;;
22070;SDS011;11200;51.488;6.668;2022-07-23T11:47:50;1.85;;;1.08;;
22070;SDS011;11200;51.488;6.668;2022-07-23T11:50:16;1.58;;;1.23;;
22070;SDS011;11200;51.488;6.668;2022-07-23T11:52:42;1.23;;;1.13;;
22070;SDS011;11200;51.488;6.668;2022-07-23T11:55:08;1.52;;;1.23;;
22070;SDS011;11200;51.488;6.668;2022-07-23T11:57:36;1.05;;;1.00;;
22070;SDS011;11200;51.488;6.668;2022-07-23T12:02:41;1.85;;;1.20;;
22070;SDS011;11200;51.488;6.668;2022-07-23T12:05:42;1.15;;;1.02;;
22070;SDS011;11200;51.488;6.668;2022-07-23T12:08:03;1.42;;;1.20;;
22070;SDS011;11200;51.488;6.668;2022-07-23T12:10:33;1.30;;;1.20;;
22070;SDS011;11200;51.488;6.668;2022-07-23T12:13:00;1.88;;;1.10;;
22070;SDS011;11200;51.488;6.668;2022-07-23T12:15:29;1.20;;;1.10;;
22070;SDS011;11200;51.488;6.668;2022-07-23T12:17:57;1.30;;;1.20;;
22070;SDS011;11200;51.488;6.668;2022-07-23T12:20:27;2.40;;;1.50;;
22070;SDS011;11200;51.488;6.668;2022-07-23T12:22:55;2.28;;;1.30;;
22070;SDS011;11200;51.488;6.668;2022-07-23T12:25:24;1.63;;;1.35;;
22070;SDS011;11200;51.488;6.668;2022-07-23T12:28:27;1.27;;;1.17;;
22070;SDS011;11200;51.488;6.668;2022-07-23T12:30:56;1.40;;;1.10;;
22070;SDS011;11200;51.488;6.668;2022-07-23T12:35:56;1.38;;;1.27;;
22070;SDS011;11200;51.488;6.668;2022-07-23T12:38:24;1.25;;;1.15;;
22070;SDS011;11200;51.488;6.668;2022-07-23T12:40:52;1.75;;;1.30;;
22070;SDS011;11200;51.488;6.668;2022-07-23T12:43:24;1.20;;;1.10;;
22070;SDS011;11200;51.488;6.668;2022-07-23T12:46:05;2.03;;;1.20;;
22070;SDS011;11200;51.488;6.668;2022-07-23T12:48:39;1.38;;;1.27;;
22070;SDS011;11200;51.488;6.668;2022-07-23T12:51:25;1.30;;;1.20;;
22070;SDS011;11200;51.488;6.668;2022-07-23T12:54:09;1.67;;;1.40;;
22070;SDS011;11200;51.488;6.668;2022-07-23T12:56:37;1.40;;;1.30;;
22070;SDS011;11200;51.488;6.668;2022-07-23T12:59:06;2.55;;;1.65;;
22070;SDS011;11200;51.488;6.668;2022-07-23T13:01:37;1.70;;;1.60;;
22070;SDS011;11200;51.488;6.668;2022-07-23T13:04:10;1.40;;;1.30;;
22070;SDS011;11200;51.488;6.668;2022-07-23T13:06:42;1.45;;;1.30;;
22070;SDS011;11200;51.488;6.668;2022-07-23T13:09:11;1.67;;;1.50;;
22070;SDS011;11200;51.488;6.668;2022-07-23T13:11:38;1.70;;;1.60;;
22070;SDS011;11200;51.488;6.668;2022-07-23T13:14:04;1.58;;;1.48;;
22070;SDS011;11200;51.488;6.668;2022-07-23T13:16:31;1.67;;;1.58;;
22070;SDS011;11200;51.488;6.668;2022-07-23T13:18:58;1.55;;;1.45;;
22070;SDS011;11200;51.488;6.668;2022-07-23T13:21:26;1.38;;;1.25;;
22070;SDS011;11200;51.488;6.668;2022-07-23T13:23:52;2.17;;;1.50;;
22070;SDS011;11200;51.488;6.668;2022-07-23T13:26:19;1.55;;;1.45;;
22070;SDS011;11200;51.488;6.668;2022-07-23T13:28:44;1.50;;;1.40;;
22070;SDS011;11200;51.488;6.668;2022-07-23T13:31:10;1.80;;;1.45;;
22070;SDS011;11200;51.488;6.668;2022-07-23T13:33:36;1.50;;;1.40;;
22070;SDS011;11200;51.488;6.668;2022-07-23T13:36:01;2.30;;;1.42;;
22070;SDS011;11200;51.488;6.668;2022-07-23T13:38:28;1.75;;;1.40;;
22070;SDS011;11200;51.488;6.668;2022-07-23T13:40:54;1.58;;;1.48;;
22070;SDS011;11200;51.488;6.668;2022-07-23T13:43:21;1.60;;;1.50;;
22070;SDS011;11200;51.488;6.668;2022-07-23T13:45:48;1.52;;;1.40;;
22070;SDS011;11200;51.488;6.668;2022-07-23T13:48:14;1.42;;;1.33;;
22070;SDS011;11200;51.488;6.668;2022-07-23T13:50:41;1.58;;;1.48;;
22070;SDS011;11200;51.488;6.668;2022-07-23T13:53:08;1.70;;;1.60;;
22070;SDS011;11200;51.488;6.668;2022-07-23T13:55:36;1.63;;;1.50;;
22070;SDS011;11200;51.488;6.668;2022-07-23T13:58:02;1.83;;;1.45;;
22070;SDS011;11200;51.488;6.668;2022-07-23T14:00:29;1.92;;;1.50;;
22070;SDS011;11200;51.488;6.668;2022-07-23T14:02:55;2.38;;;1.70;;
22070;SDS011;11200;51.488;6.668;2022-07-23T14:05:22;2.50;;;1.40;;
22070;SDS011;11200;51.488;6.668;2022-07-23T14:07:47;1.63;;;1.50;;
22070;SDS011;11200;51.488;6.668;2022-07-23T14:10:15;2.15;;;1.55;;
22070;SDS011;11200;51.488;6.668;2022-07-23T14:12:42;2.50;;;1.63;;
22070;SDS011;11200;51.488;6.668;2022-07-23T14:15:08;1.60;;;1.50;;
22070;SDS011;11200;51.488;6.668;2022-07-23T14:17:38;2.13;;;1.42;;
22070;SDS011;11200;51.488;6.668;2022-07-23T14:20:06;2.17;;;1.60;;
22070;SDS011;11200;51.488;6.668;2022-07-23T14:22:32;1.80;;;1.70;;
22070;SDS011;11200;51.488;6.668;2022-07-23T14:24:58;1.67;;;1.58;;
22070;SDS011;11200;51.488;6.668;2022-07-23T14:27:25;1.80;;;1.70;;
22070;SDS011;11200;51.488;6.668;2022-07-23T14:29:52;1.98;;;1.70;;
22070;SDS011;11200;51.488;6.668;2022-07-23T14:32:18;1.77;;;1.58;;
22070;SDS011;11200;51.488;6.668;2022-07-23T14:34:43;1.90;;;1.70;;
22070;SDS011;11200;51.488;6.668;2022-07-23T14:37:10;2.20;;;1.67;;
22070;SDS011;11200;51.488;6.668;2022-07-23T14:39:36;1.77;;;1.67;;
22070;SDS011;11200;51.488;6.668;2022-07-23T14:42:03;1.60;;;1.50;;
22070;SDS011;11200;51.488;6.668;2022-07-23T14:44:29;2.17;;;1.95;;
22070;SDS011;11200;51.488;6.668;2022-07-23T14:46:55;1.90;;;1.70;;
22070;SDS011;11200;51.488;6.668;2022-07-23T14:49:20;2.10;;;1.83;;
22070;SDS011;11200;51.488;6.668;2022-07-23T14:51:46;1.90;;;1.80;;
22070;SDS011;11200;51.488;6.668;2022-07-23T14:54:12;1.92;;;1.83;;
22070;SDS011;11200;51.488;6.668;2022-07-23T14:56:38;1.80;;;1.70;;
22070;SDS011;11200;51.488;6.668;2022-07-23T14:59:05;1.80;;;1.70;;
22070;SDS011;11200;51.488;6.668;2022-07-23T15:01:31;1.80;;;1.70;;
22070;SDS011;11200;51.488;6.668;2022-07-23T15:03:57;2.55;;;2.00;;
22070;SDS011;11200;51.488;6.668;2022-07-23T15:06:22;2.05;;;1.83;;
22070;SDS011;11200;51.488;6.668;2022-07-23T15:08:48;2.20;;;2.00;;
22070;SDS011;11200;51.488;6.668;2022-07-23T15:11:15;1.92;;;1.75;;
22070;SDS011;11200;51.488;6.668;2022-07-23T15:13:40;2.20;;;1.83;;
22070;SDS011;11200;51.488;6.668;2022-07-23T15:16:06;2.13;;;1.92;;
22070;SDS011;11200;51.488;6.668;2022-07-23T15:18:32;1.92;;;1.83;;
22070;SDS011;11200;51.488;6.668;2022-07-23T15:20:58;2.08;;;1.88;;
22070;SDS011;11200;51.488;6.668;2022-07-23T15:23:24;2.20;;;2.00;;